Главная страница
METAR-TAF:

METAR-TAF

Аэропорты :

Феринихинг, Южно-Африканская Республика

широта: 26-34-29S, долгота: 027-57-45E, высота над уровнем моря: 1483 м

Текущие метеонаблюдения

Эта сводка был подготовлена 41 минут назад, в 01:00 UTC
Ветер 10 Узел от северо-северо-восточный
Температура 20°C
Влажность 53%
Давление 1023 hPa

METAR: FAVV 170100Z AUTO 03010KT //// // ////// 20/10 Q1023

Время: 03:41 (01:41 UTC)


TAF: отсутствует

Метеонаблюдения и прогнозы для более 4000 аэропортов (сводки METAR и TAF).

Имеющиеся станции представлены на карте желтыми и красными точками.

Чтобы увидеть название станции, наведите на нее мышь.

Затем щелкните, чтобы увидеть метеонаблюдения и метеопрогнозы.

Управление картой: чтобы увеличить масштаб, щелкните зеленые кнопки с черным крестиком; чтобы уменьшить масштаб, щелкните зеленую кнопку с тире; для просмотра соседних карт щелкайте зеленые стрелки.


METAR-TAF: